sensor_id;sensor_type;location;lat;lon;timestamp;P1;durP1;ratioP1;P2;durP2;ratioP2
10571;SDS011;5334;48.928;12.704;2023-05-16T00:00:15;21.57;;;20.67;;
10571;SDS011;5334;48.928;12.704;2023-05-16T00:02:42;15.90;;;15.27;;
10571;SDS011;5334;48.928;12.704;2023-05-16T00:05:07;21.33;;;20.43;;
10571;SDS011;5334;48.928;12.704;2023-05-16T00:07:34;17.43;;;16.73;;
10571;SDS011;5334;48.928;12.704;2023-05-16T00:10:01;16.97;;;16.27;;
10571;SDS011;5334;48.928;12.704;2023-05-16T00:12:27;14.30;;;13.70;;
10571;SDS011;5334;48.928;12.704;2023-05-16T00:14:53;15.87;;;15.23;;
10571;SDS011;5334;48.928;12.704;2023-05-16T00:17:19;17.07;;;16.37;;
10571;SDS011;5334;48.928;12.704;2023-05-16T00:19:46;17.30;;;16.60;;
10571;SDS011;5334;48.928;12.704;2023-05-16T00:22:16;16.23;;;15.53;;
10571;SDS011;5334;48.928;12.704;2023-05-16T00:24:41;20.00;;;19.20;;
10571;SDS011;5334;48.928;12.704;2023-05-16T00:27:07;17.57;;;16.73;;
10571;SDS011;5334;48.928;12.704;2023-05-16T00:29:33;17.70;;;17.00;;
10571;SDS011;5334;48.928;12.704;2023-05-16T00:31:59;17.10;;;16.30;;
10571;SDS011;5334;48.928;12.704;2023-05-16T00:34:25;18.93;;;18.13;;
10571;SDS011;5334;48.928;12.704;2023-05-16T00:36:51;18.90;;;18.10;;
10571;SDS011;5334;48.928;12.704;2023-05-16T00:39:17;19.47;;;18.67;;
10571;SDS011;5334;48.928;12.704;2023-05-16T00:41:43;16.97;;;16.27;;
10571;SDS011;5334;48.928;12.704;2023-05-16T00:44:10;16.60;;;15.90;;
10571;SDS011;5334;48.928;12.704;2023-05-16T00:46:35;18.43;;;17.63;;
10571;SDS011;5334;48.928;12.704;2023-05-16T00:49:01;19.67;;;18.87;;
10571;SDS011;5334;48.928;12.704;2023-05-16T00:51:27;19.60;;;18.80;;
10571;SDS011;5334;48.928;12.704;2023-05-16T00:53:53;22.33;;;21.43;;
10571;SDS011;5334;48.928;12.704;2023-05-16T00:56:20;22.40;;;21.50;;
10571;SDS011;5334;48.928;12.704;2023-05-16T00:58:46;19.70;;;18.90;;
10571;SDS011;5334;48.928;12.704;2023-05-16T01:01:12;20.73;;;19.83;;
10571;SDS011;5334;48.928;12.704;2023-05-16T01:03:38;15.23;;;14.63;;
10571;SDS011;5334;48.928;12.704;2023-05-16T01:06:04;16.40;;;15.70;;
10571;SDS011;5334;48.928;12.704;2023-05-16T01:08:30;19.23;;;18.43;;
10571;SDS011;5334;48.928;12.704;2023-05-16T01:21:08;16.23;;;15.53;;
10571;SDS011;5334;48.928;12.704;2023-05-16T01:23:59;17.97;;;17.23;;
10571;SDS011;5334;48.928;12.704;2023-05-16T01:26:30;18.17;;;17.43;;
10571;SDS011;5334;48.928;12.704;2023-05-16T01:28:56;16.97;;;16.27;;
10571;SDS011;5334;48.928;12.704;2023-05-16T01:31:23;16.80;;;16.10;;
10571;SDS011;5334;48.928;12.704;2023-05-16T01:33:48;19.40;;;18.60;;
10571;SDS011;5334;48.928;12.704;2023-05-16T01:36:24;13.33;;;12.80;;
10571;SDS011;5334;48.928;12.704;2023-05-16T01:47:11;17.77;;;17.07;;
10571;SDS011;5334;48.928;12.704;2023-05-16T01:49:40;17.40;;;16.70;;
10571;SDS011;5334;48.928;12.704;2023-05-16T01:52:21;15.90;;;15.27;;
10571;SDS011;5334;48.928;12.704;2023-05-16T01:55:10;19.00;;;18.20;;
10571;SDS011;5334;48.928;12.704;2023-05-16T01:57:41;18.83;;;18.03;;
10571;SDS011;5334;48.928;12.704;2023-05-16T02:00:07;17.20;;;16.50;;
10571;SDS011;5334;48.928;12.704;2023-05-16T02:02:33;13.77;;;13.17;;
10571;SDS011;5334;48.928;12.704;2023-05-16T02:04:59;17.10;;;16.40;;
10571;SDS011;5334;48.928;12.704;2023-05-16T02:07:25;18.63;;;17.83;;
10571;SDS011;5334;48.928;12.704;2023-05-16T02:09:51;16.90;;;16.20;;
10571;SDS011;5334;48.928;12.704;2023-05-16T02:12:17;16.20;;;15.50;;
10571;SDS011;5334;48.928;12.704;2023-05-16T02:14:42;15.20;;;14.60;;
10571;SDS011;5334;48.928;12.704;2023-05-16T02:17:08;17.87;;;17.17;;
10571;SDS011;5334;48.928;12.704;2023-05-16T02:19:34;19.10;;;18.30;;
10571;SDS011;5334;48.928;12.704;2023-05-16T02:22:00;19.70;;;18.90;;
10571;SDS011;5334;48.928;12.704;2023-05-16T02:24:25;20.27;;;19.43;;
10571;SDS011;5334;48.928;12.704;2023-05-16T02:26:51;15.13;;;14.53;;
10571;SDS011;5334;48.928;12.704;2023-05-16T02:29:17;15.47;;;14.87;;
10571;SDS011;5334;48.928;12.704;2023-05-16T02:31:42;16.70;;;16.00;;
10571;SDS011;5334;48.928;12.704;2023-05-16T02:34:08;16.20;;;15.53;;
10571;SDS011;5334;48.928;12.704;2023-05-16T02:36:34;16.33;;;15.63;;
10571;SDS011;5334;48.928;12.704;2023-05-16T02:39:00;18.33;;;17.53;;
10571;SDS011;5334;48.928;12.704;2023-05-16T02:41:28;16.03;;;15.33;;
10571;SDS011;5334;48.928;12.704;2023-05-16T02:43:53;16.03;;;15.37;;
10571;SDS011;5334;48.928;12.704;2023-05-16T02:46:28;16.93;;;16.23;;
10571;SDS011;5334;48.928;12.704;2023-05-16T02:48:55;21.13;;;20.23;;
10571;SDS011;5334;48.928;12.704;2023-05-16T02:51:22;16.77;;;16.07;;
10571;SDS011;5334;48.928;12.704;2023-05-16T02:53:49;16.93;;;16.23;;
10571;SDS011;5334;48.928;12.704;2023-05-16T02:56:16;18.63;;;17.83;;
10571;SDS011;5334;48.928;12.704;2023-05-16T02:58:42;20.30;;;19.47;;
10571;SDS011;5334;48.928;12.704;2023-05-16T03:01:09;19.27;;;18.47;;
10571;SDS011;5334;48.928;12.704;2023-05-16T03:03:35;21.90;;;21.00;;
10571;SDS011;5334;48.928;12.704;2023-05-16T03:06:01;16.50;;;15.80;;
10571;SDS011;5334;48.928;12.704;2023-05-16T03:08:27;19.90;;;19.10;;
10571;SDS011;5334;48.928;12.704;2023-05-16T03:10:53;22.23;;;21.33;;
10571;SDS011;5334;48.928;12.704;2023-05-16T03:13:18;18.47;;;17.67;;
10571;SDS011;5334;48.928;12.704;2023-05-16T03:15:44;19.87;;;19.07;;
10571;SDS011;5334;48.928;12.704;2023-05-16T03:18:10;19.17;;;18.37;;
10571;SDS011;5334;48.928;12.704;2023-05-16T03:20:36;19.30;;;18.50;;
10571;SDS011;5334;48.928;12.704;2023-05-16T03:23:02;22.93;;;21.93;;
10571;SDS011;5334;48.928;12.704;2023-05-16T03:25:31;20.17;;;19.33;;
10571;SDS011;5334;48.928;12.704;2023-05-16T03:27:57;18.97;;;18.17;;
10571;SDS011;5334;48.928;12.704;2023-05-16T03:30:23;18.23;;;17.47;;
10571;SDS011;5334;48.928;12.704;2023-05-16T03:32:50;18.23;;;17.47;;
10571;SDS011;5334;48.928;12.704;2023-05-16T03:35:16;18.17;;;17.43;;
10571;SDS011;5334;48.928;12.704;2023-05-16T03:37:42;19.10;;;18.30;;
10571;SDS011;5334;48.928;12.704;2023-05-16T03:40:08;20.63;;;19.73;;
10571;SDS011;5334;48.928;12.704;2023-05-16T03:42:35;20.30;;;19.40;;
10571;SDS011;5334;48.928;12.704;2023-05-16T03:45:01;21.20;;;20.30;;
10571;SDS011;5334;48.928;12.704;2023-05-16T03:47:28;20.73;;;19.83;;
10571;SDS011;5334;48.928;12.704;2023-05-16T03:49:55;19.27;;;18.47;;
10571;SDS011;5334;48.928;12.704;2023-05-16T03:52:21;21.90;;;21.00;;
10571;SDS011;5334;48.928;12.704;2023-05-16T03:54:47;17.97;;;17.20;;
10571;SDS011;5334;48.928;12.704;2023-05-16T03:57:13;22.03;;;21.13;;
10571;SDS011;5334;48.928;12.704;2023-05-16T03:59:38;19.37;;;18.57;;
10571;SDS011;5334;48.928;12.704;2023-05-16T04:02:04;21.03;;;20.13;;
10571;SDS011;5334;48.928;12.704;2023-05-16T04:04:30;17.80;;;17.07;;
10571;SDS011;5334;48.928;12.704;2023-05-16T04:06:56;19.90;;;19.10;;
10571;SDS011;5334;48.928;12.704;2023-05-16T04:09:22;19.40;;;18.60;;
10571;SDS011;5334;48.928;12.704;2023-05-16T04:11:47;19.03;;;18.23;;
10571;SDS011;5334;48.928;12.704;2023-05-16T04:14:13;19.33;;;18.53;;
10571;SDS011;5334;48.928;12.704;2023-05-16T04:16:39;20.57;;;19.70;;
10571;SDS011;5334;48.928;12.704;2023-05-16T04:19:05;22.23;;;21.33;;
10571;SDS011;5334;48.928;12.704;2023-05-16T04:21:31;18.47;;;17.67;;
10571;SDS011;5334;48.928;12.704;2023-05-16T04:23:57;18.47;;;17.67;;
10571;SDS011;5334;48.928;12.704;2023-05-16T04:26:26;19.63;;;18.83;;
10571;SDS011;5334;48.928;12.704;2023-05-16T04:28:52;21.33;;;20.43;;
10571;SDS011;5334;48.928;12.704;2023-05-16T04:31:18;17.67;;;16.97;;
10571;SDS011;5334;48.928;12.704;2023-05-16T04:33:43;20.33;;;19.47;;
10571;SDS011;5334;48.928;12.704;2023-05-16T04:36:10;17.67;;;16.97;;
10571;SDS011;5334;48.928;12.704;2023-05-16T04:38:36;16.27;;;15.57;;
10571;SDS011;5334;48.928;12.704;2023-05-16T04:41:02;21.77;;;20.87;;
10571;SDS011;5334;48.928;12.704;2023-05-16T04:43:27;19.00;;;18.20;;
10571;SDS011;5334;48.928;12.704;2023-05-16T04:45:54;23.07;;;22.07;;
10571;SDS011;5334;48.928;12.704;2023-05-16T04:48:19;20.67;;;19.77;;
10571;SDS011;5334;48.928;12.704;2023-05-16T04:50:45;20.87;;;19.97;;
10571;SDS011;5334;48.928;12.704;2023-05-16T04:53:11;21.77;;;20.87;;
10571;SDS011;5334;48.928;12.704;2023-05-16T04:55:39;24.27;;;23.27;;
10571;SDS011;5334;48.928;12.704;2023-05-16T04:58:04;20.83;;;19.93;;
10571;SDS011;5334;48.928;12.704;2023-05-16T05:00:30;22.20;;;21.27;;
10571;SDS011;5334;48.928;12.704;2023-05-16T05:02:56;22.37;;;20.90;;
10571;SDS011;5334;48.928;12.704;2023-05-16T05:05:22;21.00;;;20.10;;
10571;SDS011;5334;48.928;12.704;2023-05-16T05:07:48;20.97;;;20.07;;
10571;SDS011;5334;48.928;12.704;2023-05-16T05:10:13;20.83;;;19.93;;
10571;SDS011;5334;48.928;12.704;2023-05-16T05:12:39;23.60;;;22.60;;
10571;SDS011;5334;48.928;12.704;2023-05-16T05:15:05;19.13;;;18.33;;
10571;SDS011;5334;48.928;12.704;2023-05-16T05:17:32;18.97;;;18.17;;
10571;SDS011;5334;48.928;12.704;2023-05-16T05:19:57;17.17;;;16.47;;
10571;SDS011;5334;48.928;12.704;2023-05-16T05:22:23;23.93;;;22.93;;
10571;SDS011;5334;48.928;12.704;2023-05-16T05:24:48;22.27;;;21.37;;
10571;SDS011;5334;48.928;12.704;2023-05-16T05:27:14;19.43;;;18.57;;
10571;SDS011;5334;48.928;12.704;2023-05-16T05:29:40;19.27;;;18.47;;
10571;SDS011;5334;48.928;12.704;2023-05-16T05:32:06;18.00;;;17.30;;
10571;SDS011;5334;48.928;12.704;2023-05-16T05:34:32;22.57;;;21.63;;
10571;SDS011;5334;48.928;12.704;2023-05-16T05:36:58;20.43;;;19.57;;
10571;SDS011;5334;48.928;12.704;2023-05-16T05:39:23;20.43;;;19.60;;
10571;SDS011;5334;48.928;12.704;2023-05-16T05:41:50;17.13;;;16.43;;
10571;SDS011;5334;48.928;12.704;2023-05-16T05:44:15;21.13;;;20.27;;
10571;SDS011;5334;48.928;12.704;2023-05-16T05:46:41;16.53;;;15.83;;
10571;SDS011;5334;48.928;12.704;2023-05-16T05:49:07;20.33;;;19.50;;
10571;SDS011;5334;48.928;12.704;2023-05-16T05:51:33;16.50;;;15.80;;
10571;SDS011;5334;48.928;12.704;2023-05-16T05:53:59;19.20;;;18.40;;
10571;SDS011;5334;48.928;12.704;2023-05-16T05:56:25;21.17;;;20.20;;
10571;SDS011;5334;48.928;12.704;2023-05-16T05:58:51;24.33;;;23.33;;
10571;SDS011;5334;48.928;12.704;2023-05-16T06:01:17;21.87;;;20.97;;
10571;SDS011;5334;48.928;12.704;2023-05-16T06:03:45;18.60;;;17.80;;
10571;SDS011;5334;48.928;12.704;2023-05-16T06:06:11;21.60;;;20.63;;
10571;SDS011;5334;48.928;12.704;2023-05-16T06:08:36;17.63;;;16.93;;
10571;SDS011;5334;48.928;12.704;2023-05-16T06:11:02;17.33;;;16.63;;
10571;SDS011;5334;48.928;12.704;2023-05-16T06:13:27;17.00;;;16.30;;
10571;SDS011;5334;48.928;12.704;2023-05-16T06:15:54;17.57;;;16.87;;
10571;SDS011;5334;48.928;12.704;2023-05-16T06:18:20;21.70;;;20.80;;
10571;SDS011;5334;48.928;12.704;2023-05-16T06:20:45;20.03;;;19.20;;
10571;SDS011;5334;48.928;12.704;2023-05-16T06:23:11;23.13;;;22.17;;
10571;SDS011;5334;48.928;12.704;2023-05-16T06:25:37;17.63;;;16.93;;
10571;SDS011;5334;48.928;12.704;2023-05-16T06:28:03;17.33;;;16.63;;
10571;SDS011;5334;48.928;12.704;2023-05-16T06:30:29;15.30;;;14.70;;
10571;SDS011;5334;48.928;12.704;2023-05-16T06:32:54;15.27;;;14.67;;
10571;SDS011;5334;48.928;12.704;2023-05-16T06:35:20;20.10;;;19.30;;
10571;SDS011;5334;48.928;12.704;2023-05-16T06:37:46;17.73;;;17.03;;
10571;SDS011;5334;48.928;12.704;2023-05-16T06:40:12;22.83;;;21.87;;
10571;SDS011;5334;48.928;12.704;2023-05-16T06:42:38;17.97;;;17.17;;
10571;SDS011;5334;48.928;12.704;2023-05-16T06:45:04;18.17;;;17.43;;
10571;SDS011;5334;48.928;12.704;2023-05-16T06:47:30;20.27;;;19.43;;
10571;SDS011;5334;48.928;12.704;2023-05-16T06:49:56;19.20;;;18.40;;
10571;SDS011;5334;48.928;12.704;2023-05-16T06:52:22;16.27;;;15.57;;
10571;SDS011;5334;48.928;12.704;2023-05-16T06:54:47;20.53;;;18.87;;
10571;SDS011;5334;48.928;12.704;2023-05-16T06:57:13;18.80;;;18.00;;
10571;SDS011;5334;48.928;12.704;2023-05-16T06:59:39;19.30;;;18.50;;
10571;SDS011;5334;48.928;12.704;2023-05-16T07:02:05;17.30;;;16.60;;
10571;SDS011;5334;48.928;12.704;2023-05-16T07:04:31;16.40;;;15.70;;
10571;SDS011;5334;48.928;12.704;2023-05-16T07:06:58;20.27;;;19.43;;
10571;SDS011;5334;48.928;12.704;2023-05-16T07:09:24;13.43;;;12.93;;
10571;SDS011;5334;48.928;12.704;2023-05-16T07:11:50;19.47;;;18.67;;
10571;SDS011;5334;48.928;12.704;2023-05-16T07:14:15;14.63;;;14.03;;
10571;SDS011;5334;48.928;12.704;2023-05-16T07:16:41;16.83;;;16.13;;
10571;SDS011;5334;48.928;12.704;2023-05-16T07:19:07;15.77;;;15.13;;
10571;SDS011;5334;48.928;12.704;2023-05-16T07:21:32;18.87;;;18.07;;
10571;SDS011;5334;48.928;12.704;2023-05-16T07:23:58;18.87;;;18.07;;
10571;SDS011;5334;48.928;12.704;2023-05-16T07:26:24;16.53;;;15.83;;
10571;SDS011;5334;48.928;12.704;2023-05-16T07:28:50;15.10;;;14.50;;
10571;SDS011;5334;48.928;12.704;2023-05-16T07:31:16;14.10;;;13.50;;
10571;SDS011;5334;48.928;12.704;2023-05-16T07:33:42;16.53;;;15.83;;
10571;SDS011;5334;48.928;12.704;2023-05-16T07:36:11;19.30;;;18.50;;
10571;SDS011;5334;48.928;12.704;2023-05-16T07:38:37;18.57;;;17.77;;
10571;SDS011;5334;48.928;12.704;2023-05-16T07:41:03;25.97;;;24.87;;
10571;SDS011;5334;48.928;12.704;2023-05-16T07:43:30;17.67;;;16.97;;
10571;SDS011;5334;48.928;12.704;2023-05-16T07:45:59;16.27;;;15.57;;
10571;SDS011;5334;48.928;12.704;2023-05-16T07:48:25;18.30;;;17.53;;
10571;SDS011;5334;48.928;12.704;2023-05-16T07:50:50;16.90;;;16.20;;
10571;SDS011;5334;48.928;12.704;2023-05-16T07:53:16;15.73;;;15.10;;
10571;SDS011;5334;48.928;12.704;2023-05-16T07:55:47;15.23;;;14.63;;
10571;SDS011;5334;48.928;12.704;2023-05-16T07:58:14;15.67;;;15.07;;
10571;SDS011;5334;48.928;12.704;2023-05-16T08:00:40;16.10;;;15.40;;
10571;SDS011;5334;48.928;12.704;2023-05-16T08:03:06;14.70;;;14.10;;
10571;SDS011;5334;48.928;12.704;2023-05-16T08:05:32;15.37;;;14.77;;
10571;SDS011;5334;48.928;12.704;2023-05-16T08:07:57;15.80;;;15.17;;
10571;SDS011;5334;48.928;12.704;2023-05-16T08:10:23;15.33;;;14.73;;
10571;SDS011;5334;48.928;12.704;2023-05-16T08:12:50;15.23;;;14.63;;
10571;SDS011;5334;48.928;12.704;2023-05-16T08:15:17;15.30;;;14.67;;
10571;SDS011;5334;48.928;12.704;2023-05-16T08:17:43;16.67;;;15.97;;
10571;SDS011;5334;48.928;12.704;2023-05-16T08:20:09;19.20;;;18.40;;
10571;SDS011;5334;48.928;12.704;2023-05-16T08:22:35;19.23;;;18.43;;
10571;SDS011;5334;48.928;12.704;2023-05-16T08:25:01;13.17;;;12.67;;
10571;SDS011;5334;48.928;12.704;2023-05-16T08:27:27;19.63;;;18.83;;
10571;SDS011;5334;48.928;12.704;2023-05-16T08:29:53;16.37;;;15.67;;
10571;SDS011;5334;48.928;12.704;2023-05-16T08:32:20;14.40;;;13.80;;
10571;SDS011;5334;48.928;12.704;2023-05-16T08:34:46;15.50;;;14.87;;
10571;SDS011;5334;48.928;12.704;2023-05-16T08:37:12;15.97;;;15.30;;
10571;SDS011;5334;48.928;12.704;2023-05-16T08:39:38;14.27;;;13.67;;
10571;SDS011;5334;48.928;12.704;2023-05-16T08:42:04;12.87;;;12.37;;
10571;SDS011;5334;48.928;12.704;2023-05-16T08:44:31;14.87;;;14.27;;
10571;SDS011;5334;48.928;12.704;2023-05-16T08:46:57;16.33;;;15.63;;
10571;SDS011;5334;48.928;12.704;2023-05-16T08:49:29;15.93;;;15.30;;
10571;SDS011;5334;48.928;12.704;2023-05-16T08:51:57;15.90;;;15.23;;
10571;SDS011;5334;48.928;12.704;2023-05-16T08:54:24;14.87;;;14.27;;
10571;SDS011;5334;48.928;12.704;2023-05-16T08:56:51;15.23;;;14.63;;
10571;SDS011;5334;48.928;12.704;2023-05-16T08:59:17;14.27;;;13.67;;
10571;SDS011;5334;48.928;12.704;2023-05-16T09:01:43;16.07;;;15.37;;
10571;SDS011;5334;48.928;12.704;2023-05-16T09:04:08;12.00;;;11.50;;
10571;SDS011;5334;48.928;12.704;2023-05-16T09:06:35;16.30;;;15.60;;
10571;SDS011;5334;48.928;12.704;2023-05-16T09:09:01;16.37;;;15.67;;
10571;SDS011;5334;48.928;12.704;2023-05-16T09:11:28;13.47;;;12.97;;
10571;SDS011;5334;48.928;12.704;2023-05-16T09:13:53;19.27;;;18.47;;
10571;SDS011;5334;48.928;12.704;2023-05-16T09:16:19;15.23;;;14.63;;
10571;SDS011;5334;48.928;12.704;2023-05-16T09:18:51;19.43;;;18.63;;
10571;SDS011;5334;48.928;12.704;2023-05-16T09:21:18;15.40;;;14.80;;
10571;SDS011;5334;48.928;12.704;2023-05-16T09:23:47;19.20;;;18.40;;
10571;SDS011;5334;48.928;12.704;2023-05-16T09:26:13;14.40;;;13.80;;
10571;SDS011;5334;48.928;12.704;2023-05-16T09:28:42;15.20;;;14.60;;
10571;SDS011;5334;48.928;12.704;2023-05-16T09:31:25;13.17;;;12.67;;
10571;SDS011;5334;48.928;12.704;2023-05-16T09:33:52;16.13;;;15.47;;
10571;SDS011;5334;48.928;12.704;2023-05-16T09:36:20;15.77;;;15.17;;
10571;SDS011;5334;48.928;12.704;2023-05-16T09:38:46;17.80;;;17.10;;
10571;SDS011;5334;48.928;12.704;2023-05-16T09:41:12;14.73;;;14.13;;
10571;SDS011;5334;48.928;12.704;2023-05-16T09:43:39;19.27;;;18.47;;
10571;SDS011;5334;48.928;12.704;2023-05-16T09:46:07;18.70;;;17.90;;
10571;SDS011;5334;48.928;12.704;2023-05-16T09:48:32;18.03;;;17.23;;
10571;SDS011;5334;48.928;12.704;2023-05-16T09:50:58;21.47;;;20.57;;
10571;SDS011;5334;48.928;12.704;2023-05-16T09:53:29;22.60;;;21.70;;
10571;SDS011;5334;48.928;12.704;2023-05-16T09:56:00;16.70;;;16.00;;
10571;SDS011;5334;48.928;12.704;2023-05-16T09:58:32;14.77;;;14.17;;
10571;SDS011;5334;48.928;12.704;2023-05-16T10:00:59;22.33;;;21.43;;
10571;SDS011;5334;48.928;12.704;2023-05-16T10:03:25;18.87;;;18.07;;
10571;SDS011;5334;48.928;12.704;2023-05-16T10:05:52;16.93;;;16.23;;
10571;SDS011;5334;48.928;12.704;2023-05-16T10:08:22;18.20;;;17.47;;
10571;SDS011;5334;48.928;12.704;2023-05-16T10:10:55;18.20;;;17.43;;
10571;SDS011;5334;48.928;12.704;2023-05-16T10:13:22;22.43;;;21.47;;
10571;SDS011;5334;48.928;12.704;2023-05-16T10:15:50;15.47;;;14.87;;
10571;SDS011;5334;48.928;12.704;2023-05-16T10:18:20;15.83;;;15.13;;
10571;SDS011;5334;48.928;12.704;2023-05-16T10:20:50;14.33;;;13.73;;
10571;SDS011;5334;48.928;12.704;2023-05-16T10:23:19;16.70;;;16.00;;
10571;SDS011;5334;48.928;12.704;2023-05-16T10:25:47;17.13;;;16.43;;
10571;SDS011;5334;48.928;12.704;2023-05-16T10:28:13;18.27;;;17.50;;
10571;SDS011;5334;48.928;12.704;2023-05-16T10:30:41;15.53;;;14.93;;
10571;SDS011;5334;48.928;12.704;2023-05-16T10:33:11;19.13;;;18.17;;
10571;SDS011;5334;48.928;12.704;2023-05-16T10:35:41;19.83;;;19.03;;
10571;SDS011;5334;48.928;12.704;2023-05-16T10:38:08;17.57;;;16.83;;
10571;SDS011;5334;48.928;12.704;2023-05-16T10:40:36;18.57;;;17.77;;
10571;SDS011;5334;48.928;12.704;2023-05-16T10:43:04;15.77;;;15.10;;
10571;SDS011;5334;48.928;12.704;2023-05-16T10:45:30;18.33;;;17.53;;
10571;SDS011;5334;48.928;12.704;2023-05-16T10:48:00;15.77;;;15.13;;
10571;SDS011;5334;48.928;12.704;2023-05-16T10:58:45;14.90;;;14.30;;
10571;SDS011;5334;48.928;12.704;2023-05-16T11:11:46;12.37;;;11.87;;
10571;SDS011;5334;48.928;12.704;2023-05-16T11:17:05;18.50;;;17.70;;
10571;SDS011;5334;48.928;12.704;2023-05-16T11:22:04;17.67;;;16.97;;
10571;SDS011;5334;48.928;12.704;2023-05-16T11:24:32;17.07;;;16.37;;
10571;SDS011;5334;48.928;12.704;2023-05-16T11:26:59;36.10;;;19.17;;
10571;SDS011;5334;48.928;12.704;2023-05-16T11:29:26;13.53;;;13.00;;
10571;SDS011;5334;48.928;12.704;2023-05-16T11:31:56;25.53;;;23.97;;
10571;SDS011;5334;48.928;12.704;2023-05-16T11:34:23;66.23;;;61.33;;
10571;SDS011;5334;48.928;12.704;2023-05-16T11:36:49;38.03;;;36.43;;
10571;SDS011;5334;48.928;12.704;2023-05-16T11:39:16;40.23;;;38.53;;
10571;SDS011;5334;48.928;12.704;2023-05-16T11:41:43;40.10;;;38.40;;
10571;SDS011;5334;48.928;12.704;2023-05-16T11:44:10;1999.90;;;999.90;;
10571;SDS011;5334;48.928;12.704;2023-05-16T11:46:38;1999.90;;;999.90;;
10571;SDS011;5334;48.928;12.704;2023-05-16T11:49:08;1999.90;;;999.90;;
10571;SDS011;5334;48.928;12.704;2023-05-16T11:51:36;1999.90;;;999.90;;
10571;SDS011;5334;48.928;12.704;2023-05-16T11:54:02;1999.90;;;999.90;;
10571;SDS011;5334;48.928;12.704;2023-05-16T11:56:32;1999.90;;;999.90;;
10571;SDS011;5334;48.928;12.704;2023-05-16T11:58:59;1999.90;;;999.90;;
10571;SDS011;5334;48.928;12.704;2023-05-16T12:01:32;1999.90;;;999.90;;
10571;SDS011;5334;48.928;12.704;2023-05-16T12:03:59;1999.90;;;999.90;;
10571;SDS011;5334;48.928;12.704;2023-05-16T12:06:25;1999.90;;;999.90;;
10571;SDS011;5334;48.928;12.704;2023-05-16T12:08:51;1999.90;;;999.90;;
10571;SDS011;5334;48.928;12.704;2023-05-16T12:11:17;1999.90;;;999.90;;
10571;SDS011;5334;48.928;12.704;2023-05-16T12:13:43;1999.90;;;999.90;;
10571;SDS011;5334;48.928;12.704;2023-05-16T12:16:10;1999.90;;;999.90;;
10571;SDS011;5334;48.928;12.704;2023-05-16T12:18:37;1999.90;;;999.90;;
10571;SDS011;5334;48.928;12.704;2023-05-16T12:21:06;1999.90;;;999.90;;
10571;SDS011;5334;48.928;12.704;2023-05-16T12:23:32;1999.90;;;999.90;;
10571;SDS011;5334;48.928;12.704;2023-05-16T12:25:58;1999.90;;;999.90;;
10571;SDS011;5334;48.928;12.704;2023-05-16T12:28:31;1999.90;;;999.90;;
10571;SDS011;5334;48.928;12.704;2023-05-16T12:30:58;1999.90;;;999.90;;
10571;SDS011;5334;48.928;12.704;2023-05-16T12:33:24;1999.90;;;999.90;;
10571;SDS011;5334;48.928;12.704;2023-05-16T12:35:49;1999.90;;;999.90;;
10571;SDS011;5334;48.928;12.704;2023-05-16T12:38:17;1999.90;;;999.90;;
10571;SDS011;5334;48.928;12.704;2023-05-16T12:40:44;1999.90;;;999.90;;
10571;SDS011;5334;48.928;12.704;2023-05-16T12:43:14;1999.90;;;999.90;;
10571;SDS011;5334;48.928;12.704;2023-05-16T12:45:50;1999.90;;;999.90;;
10571;SDS011;5334;48.928;12.704;2023-05-16T12:48:17;1999.90;;;999.90;;
10571;SDS011;5334;48.928;12.704;2023-05-16T12:50:42;1999.90;;;999.90;;
10571;SDS011;5334;48.928;12.704;2023-05-16T12:53:14;1999.90;;;999.90;;
10571;SDS011;5334;48.928;12.704;2023-05-16T12:55:42;1999.90;;;999.90;;
10571;SDS011;5334;48.928;12.704;2023-05-16T12:58:08;1999.90;;;999.90;;
10571;SDS011;5334;48.928;12.704;2023-05-16T13:00:34;1999.90;;;999.90;;
10571;SDS011;5334;48.928;12.704;2023-05-16T13:03:01;1999.90;;;999.90;;
10571;SDS011;5334;48.928;12.704;2023-05-16T13:05:27;1999.90;;;999.90;;
10571;SDS011;5334;48.928;12.704;2023-05-16T13:07:53;1999.90;;;999.90;;
10571;SDS011;5334;48.928;12.704;2023-05-16T13:10:19;1999.90;;;999.90;;
10571;SDS011;5334;48.928;12.704;2023-05-16T13:12:45;1999.90;;;999.90;;
10571;SDS011;5334;48.928;12.704;2023-05-16T13:15:12;1999.90;;;999.90;;
10571;SDS011;5334;48.928;12.704;2023-05-16T13:17:38;1999.90;;;999.90;;
10571;SDS011;5334;48.928;12.704;2023-05-16T13:20:04;1999.90;;;999.90;;
10571;SDS011;5334;48.928;12.704;2023-05-16T13:22:37;1999.90;;;999.90;;
10571;SDS011;5334;48.928;12.704;2023-05-16T13:25:03;1999.90;;;999.90;;
10571;SDS011;5334;48.928;12.704;2023-05-16T13:27:30;1999.90;;;999.90;;
10571;SDS011;5334;48.928;12.704;2023-05-16T13:29:56;1999.90;;;999.90;;
10571;SDS011;5334;48.928;12.704;2023-05-16T13:32:22;1999.90;;;999.90;;
10571;SDS011;5334;48.928;12.704;2023-05-16T13:34:49;1999.90;;;999.90;;
10571;SDS011;5334;48.928;12.704;2023-05-16T13:37:15;1999.90;;;999.90;;
10571;SDS011;5334;48.928;12.704;2023-05-16T13:39:41;1999.90;;;999.90;;
10571;SDS011;5334;48.928;12.704;2023-05-16T13:42:07;1999.90;;;999.90;;
10571;SDS011;5334;48.928;12.704;2023-05-16T13:44:33;1999.90;;;999.90;;
10571;SDS011;5334;48.928;12.704;2023-05-16T13:47:00;1999.90;;;999.90;;
10571;SDS011;5334;48.928;12.704;2023-05-16T13:49:26;1999.90;;;999.90;;
10571;SDS011;5334;48.928;12.704;2023-05-16T13:51:52;1999.90;;;999.90;;
10571;SDS011;5334;48.928;12.704;2023-05-16T13:54:18;1999.90;;;999.90;;
10571;SDS011;5334;48.928;12.704;2023-05-16T13:56:46;1999.90;;;999.90;;
10571;SDS011;5334;48.928;12.704;2023-05-16T13:59:12;1999.90;;;999.90;;
10571;SDS011;5334;48.928;12.704;2023-05-16T14:01:38;1999.90;;;999.90;;
10571;SDS011;5334;48.928;12.704;2023-05-16T14:04:04;1999.90;;;999.90;;
10571;SDS011;5334;48.928;12.704;2023-05-16T14:06:30;1999.90;;;999.90;;
10571;SDS011;5334;48.928;12.704;2023-05-16T14:08:57;1999.90;;;999.90;;
10571;SDS011;5334;48.928;12.704;2023-05-16T14:11:23;1999.90;;;999.90;;
10571;SDS011;5334;48.928;12.704;2023-05-16T14:13:52;1999.90;;;999.90;;
10571;SDS011;5334;48.928;12.704;2023-05-16T14:16:18;1999.90;;;999.90;;
10571;SDS011;5334;48.928;12.704;2023-05-16T14:18:44;1999.90;;;999.90;;
10571;SDS011;5334;48.928;12.704;2023-05-16T14:21:10;1999.90;;;999.90;;
10571;SDS011;5334;48.928;12.704;2023-05-16T14:23:36;1999.90;;;999.90;;
10571;SDS011;5334;48.928;12.704;2023-05-16T14:26:03;1999.90;;;999.90;;
10571;SDS011;5334;48.928;12.704;2023-05-16T14:28:29;1999.90;;;999.90;;
10571;SDS011;5334;48.928;12.704;2023-05-16T14:30:57;1999.90;;;999.90;;
10571;SDS011;5334;48.928;12.704;2023-05-16T14:33:23;1999.90;;;999.90;;
10571;SDS011;5334;48.928;12.704;2023-05-16T14:35:49;1999.90;;;999.90;;
10571;SDS011;5334;48.928;12.704;2023-05-16T14:38:16;1999.90;;;999.90;;
10571;SDS011;5334;48.928;12.704;2023-05-16T14:40:43;1999.90;;;999.90;;
10571;SDS011;5334;48.928;12.704;2023-05-16T14:43:09;1999.90;;;999.90;;
10571;SDS011;5334;48.928;12.704;2023-05-16T14:45:36;1999.90;;;999.90;;
10571;SDS011;5334;48.928;12.704;2023-05-16T14:48:03;1999.90;;;999.90;;
10571;SDS011;5334;48.928;12.704;2023-05-16T14:50:29;1999.90;;;999.90;;
10571;SDS011;5334;48.928;12.704;2023-05-16T14:52:55;1999.90;;;999.90;;